Germiston, South Africa
Current Conditions -  °F | °C
As of 10:00 PM on Friday 31 Oct 2014 (Local Time) from FAOR Reporting Station
Clear Clear  
Wind Chill: 64°   Ceiling: Unl
Heat Index: 64°   Visibility: 6mi
Dew Point: 55°   Wind: 20mph
Humidity: 73%   Direction: 50°NE
Pressure: 30.21"   Gusts: NA
Location:  26.16°S, 28.19°E
Report Text: FAOR 312000Z 05017KT CAVOK 18/13 Q1023 NOSIG
Loading
Personal Weather Stations






























Interactive Weather Map
Tropical Storm Tracking
New forecast layout! Learn more

10-Day Weather Forecast

Advertisements
Track Severe Weather on mobile